createdAt,value
2018-11-04T00:01:13.497Z,11.27
2018-11-04T00:03:42.803Z,11.65
2018-11-04T00:06:11.854Z,11.00
2018-11-04T00:08:40.527Z,11.33
2018-11-04T00:11:09.434Z,11.20
2018-11-04T00:13:38.573Z,11.30
2018-11-04T00:16:07.866Z,10.27
2018-11-04T00:18:37.425Z,10.60
2018-11-04T00:21:06.372Z,11.17
2018-11-04T00:23:35.714Z,11.53
2018-11-04T00:26:04.752Z,10.70
2018-11-04T00:28:33.682Z,10.80
2018-11-04T00:31:02.467Z,10.57
2018-11-04T00:33:31.458Z,11.30
2018-11-04T00:36:00.273Z,11.23
2018-11-04T00:38:28.952Z,10.50
2018-11-04T00:40:58.206Z,10.48
2018-11-04T00:43:27.387Z,9.10
2018-11-04T00:45:57.367Z,10.75
2018-11-04T00:48:26.124Z,11.30
2018-11-04T00:50:56.023Z,11.12
2018-11-04T00:53:25.544Z,10.47
2018-11-04T00:55:55.046Z,9.90
2018-11-04T00:58:24.728Z,10.70
2018-11-04T01:00:53.954Z,11.70
2018-11-04T01:03:23.189Z,10.93
2018-11-04T01:05:52.285Z,9.43
2018-11-04T01:08:21.163Z,9.33
2018-11-04T01:10:49.969Z,9.67
2018-11-04T01:13:19.071Z,9.03
2018-11-04T01:15:49.309Z,9.40
2018-11-04T01:18:18.470Z,9.13
2018-11-04T01:20:47.414Z,8.90
2018-11-04T01:23:16.096Z,9.63
2018-11-04T01:25:45.093Z,9.20
2018-11-04T01:28:14.647Z,11.27
2018-11-04T01:30:43.647Z,10.60
2018-11-04T01:33:13.029Z,9.80
2018-11-04T01:35:41.731Z,9.97
2018-11-04T01:38:10.374Z,10.20
2018-11-04T01:40:39.459Z,10.08
2018-11-04T01:43:08.752Z,9.43
2018-11-04T01:45:37.396Z,9.93
2018-11-04T01:48:06.340Z,10.33
2018-11-04T01:50:35.501Z,9.80
2018-11-04T01:53:04.057Z,9.30
2018-11-04T01:55:32.957Z,10.03
2018-11-04T01:58:02.077Z,10.03
2018-11-04T02:00:30.974Z,9.53
2018-11-04T02:02:59.815Z,9.87
2018-11-04T02:05:28.796Z,9.57
2018-11-04T02:07:57.689Z,10.20
2018-11-04T02:10:27.328Z,9.50
2018-11-04T02:12:56.144Z,9.58
2018-11-04T02:15:25.424Z,8.27
2018-11-04T02:17:54.089Z,9.00
2018-11-04T02:20:22.834Z,8.90
2018-11-04T02:22:51.488Z,8.83
2018-11-04T02:25:20.759Z,9.57
2018-11-04T02:27:50.851Z,9.03
2018-11-04T02:30:20.134Z,9.03
2018-11-04T02:32:49.313Z,9.07
2018-11-04T02:35:18.500Z,8.43
2018-11-04T02:37:47.349Z,9.38
2018-11-04T02:40:16.999Z,8.83
2018-11-04T02:42:46.493Z,9.60
2018-11-04T02:45:15.383Z,8.60
2018-11-04T02:47:44.933Z,9.87
2018-11-04T02:50:13.834Z,9.27
2018-11-04T02:52:43.065Z,8.65
2018-11-04T02:55:12.222Z,9.63
2018-11-04T02:57:41.533Z,9.00
2018-11-04T03:00:12.863Z,9.40
2018-11-04T03:02:44.194Z,8.03
2018-11-04T03:05:13.215Z,9.87
2018-11-04T03:07:42.936Z,13.33
2018-11-04T03:10:13.397Z,9.87
2018-11-04T03:12:42.209Z,10.77
2018-11-04T03:15:11.148Z,11.67
2018-11-04T03:17:40.107Z,21.17
2018-11-04T03:20:08.775Z,11.80
2018-11-04T03:22:37.674Z,11.67
2018-11-04T03:25:07.345Z,11.50
2018-11-04T03:27:36.183Z,11.63
2018-11-04T03:30:05.388Z,12.17
2018-11-04T03:32:35.614Z,10.87
2018-11-04T03:35:05.204Z,11.90
2018-11-04T03:37:33.964Z,11.63
2018-11-04T03:40:03.028Z,12.37
2018-11-04T03:42:32.469Z,11.73
2018-11-04T03:45:01.258Z,15.10
2018-11-04T03:47:30.887Z,15.90
2018-11-04T03:49:59.999Z,13.72
2018-11-04T03:52:29.403Z,15.90
2018-11-04T03:54:58.722Z,16.10
2018-11-04T03:57:27.493Z,17.40
2018-11-04T03:59:56.970Z,16.60
2018-11-04T04:02:27.178Z,14.30
2018-11-04T04:04:57.340Z,12.40
2018-11-04T04:07:26.554Z,14.63
2018-11-04T04:09:55.444Z,16.20
2018-11-04T04:12:24.164Z,16.20
2018-11-04T04:14:52.904Z,16.23
2018-11-04T04:17:22.762Z,23.73
2018-11-04T04:19:51.667Z,26.37
2018-11-04T04:22:20.964Z,20.13
2018-11-04T04:24:49.848Z,24.20
2018-11-04T04:27:19.469Z,23.77
2018-11-04T04:29:48.220Z,22.90
2018-11-04T04:32:17.449Z,22.40
2018-11-04T04:34:47.143Z,21.90
2018-11-04T04:37:15.879Z,25.23
2018-11-04T04:39:45.512Z,21.13
2018-11-04T04:42:14.159Z,21.93
2018-11-04T04:44:42.893Z,18.97
2018-11-04T04:47:11.787Z,16.10
2018-11-04T04:49:41.379Z,17.85
2018-11-04T04:52:10.612Z,16.40
2018-11-04T04:54:39.749Z,18.57
2018-11-04T04:57:08.948Z,26.57
2018-11-04T04:59:37.669Z,24.15
2018-11-04T05:02:07.449Z,23.23
2018-11-04T05:04:36.957Z,23.12
2018-11-04T05:07:05.835Z,22.10
2018-11-04T05:09:37.373Z,22.13
2018-11-04T05:12:06.664Z,23.17
2018-11-04T05:14:38.494Z,26.27
2018-11-04T05:17:07.627Z,24.07
2018-11-04T05:19:36.989Z,27.50
2018-11-04T05:22:06.390Z,24.40
2018-11-04T05:24:35.433Z,31.65
2018-11-04T05:27:04.787Z,27.37
2018-11-04T05:29:35.400Z,24.43
2018-11-04T05:32:06.100Z,24.70
2018-11-04T05:34:35.164Z,25.80
2018-11-04T05:37:04.519Z,23.10
2018-11-04T05:39:33.676Z,22.43
2018-11-04T05:42:03.127Z,23.62
2018-11-04T05:44:32.137Z,24.20
2018-11-04T05:47:01.256Z,24.20
2018-11-04T05:49:30.156Z,24.70
2018-11-04T05:51:58.755Z,25.30
2018-11-04T05:54:27.721Z,24.40
2018-11-04T05:56:56.309Z,24.07
2018-11-04T05:59:25.334Z,23.27
2018-11-04T06:01:54.050Z,24.20
2018-11-04T06:04:23.010Z,22.30
2018-11-04T06:06:51.644Z,23.70
2018-11-04T06:09:20.381Z,24.70
2018-11-04T06:11:50.636Z,23.15
2018-11-04T06:14:19.641Z,22.20
2018-11-04T06:16:48.411Z,25.63
2018-11-04T06:19:17.208Z,21.67
2018-11-04T06:21:46.492Z,23.40
2018-11-04T06:24:15.635Z,22.13
2018-11-04T06:26:45.044Z,23.18
2018-11-04T06:29:14.140Z,22.70
2018-11-04T06:31:43.067Z,23.00
2018-11-04T06:34:11.689Z,24.37
2018-11-04T06:36:40.705Z,23.03
2018-11-04T06:39:09.743Z,21.33
2018-11-04T06:41:38.657Z,21.23
2018-11-04T06:44:07.746Z,20.43
2018-11-04T06:46:36.888Z,21.23
2018-11-04T06:49:06.137Z,22.02
2018-11-04T06:51:34.859Z,20.10
2018-11-04T06:54:05.414Z,22.22
2018-11-04T06:56:34.180Z,20.50
2018-11-04T06:59:02.844Z,20.80
2018-11-04T07:01:31.524Z,22.07
2018-11-04T07:04:14.603Z,21.20
2018-11-04T07:06:44.120Z,22.07
2018-11-04T07:09:14.101Z,20.63
2018-11-04T07:11:43.041Z,20.17
2018-11-04T07:14:11.889Z,22.60
2018-11-04T07:16:41.226Z,23.10
2018-11-04T07:19:10.335Z,23.17
2018-11-04T07:21:39.571Z,22.00
2018-11-04T07:24:08.839Z,23.00
2018-11-04T07:26:38.108Z,41.10
2018-11-04T07:29:07.830Z,22.40
2018-11-04T07:31:37.335Z,21.80
2018-11-04T07:34:06.652Z,22.70
2018-11-04T07:36:35.545Z,21.82
2018-11-04T07:39:07.739Z,21.27
2018-11-04T07:41:40.295Z,22.77
2018-11-04T07:44:09.385Z,21.83
2018-11-04T07:46:38.694Z,21.97
2018-11-04T07:49:07.463Z,20.60
2018-11-04T07:51:37.932Z,20.77
2018-11-04T07:54:07.256Z,23.23
2018-11-04T07:56:36.407Z,21.63
2018-11-04T07:59:05.348Z,21.87
2018-11-04T08:01:33.990Z,21.70
2018-11-04T08:04:03.017Z,21.50
2018-11-04T08:06:32.000Z,22.40
2018-11-04T08:09:00.745Z,22.70
2018-11-04T08:11:29.875Z,23.20
2018-11-04T08:13:58.736Z,21.57
2018-11-04T08:16:27.460Z,22.40
2018-11-04T08:18:56.219Z,22.82
2018-11-04T08:21:24.957Z,22.30
2018-11-04T08:23:53.978Z,21.83
2018-11-04T08:26:22.859Z,21.57
2018-11-04T08:28:51.567Z,22.33
2018-11-04T08:31:21.697Z,20.80
2018-11-04T08:33:50.901Z,22.20
2018-11-04T08:36:20.146Z,22.20
2018-11-04T08:38:49.379Z,20.67
2018-11-04T08:41:18.621Z,21.23
2018-11-04T08:43:47.796Z,20.60
2018-11-04T08:46:17.071Z,19.10
2018-11-04T08:48:46.764Z,19.80
2018-11-04T08:51:15.501Z,18.50
2018-11-04T08:53:44.376Z,20.13
2018-11-04T08:56:14.007Z,20.00
2018-11-04T08:58:43.061Z,19.17
2018-11-04T09:01:12.177Z,17.80
2018-11-04T09:03:40.962Z,18.97
2018-11-04T09:06:10.015Z,18.17
2018-11-04T09:08:39.028Z,18.47
2018-11-04T09:11:08.435Z,18.20
2018-11-04T09:13:37.476Z,20.50
2018-11-04T09:16:06.780Z,18.90
2018-11-04T09:18:35.889Z,18.53
2018-11-04T09:21:05.122Z,18.10
2018-11-04T09:23:34.458Z,17.80
2018-11-04T09:26:03.549Z,17.50
2018-11-04T09:28:32.406Z,17.50
2018-11-04T09:31:01.739Z,23.92
2018-11-04T09:33:30.452Z,17.57
2018-11-04T09:36:00.552Z,18.37
2018-11-04T09:38:29.586Z,18.80
2018-11-04T09:40:58.456Z,17.10
2018-11-04T09:43:27.225Z,16.73
2018-11-04T09:45:56.537Z,16.07
2018-11-04T09:48:25.632Z,16.40
2018-11-04T09:50:54.421Z,17.53
2018-11-04T09:53:24.566Z,18.60
2018-11-04T09:55:53.388Z,17.63
2018-11-04T09:58:22.060Z,23.13
2018-11-04T10:00:50.862Z,16.67
2018-11-04T10:03:19.925Z,16.90
2018-11-04T10:05:48.942Z,16.93
2018-11-04T10:08:18.452Z,16.43
2018-11-04T10:10:48.636Z,15.37
2018-11-04T10:13:17.601Z,16.63
2018-11-04T10:15:47.100Z,15.83
2018-11-04T10:18:15.939Z,16.20
2018-11-04T10:20:45.812Z,15.00
2018-11-04T10:23:14.936Z,15.75
2018-11-04T10:25:44.022Z,15.03
2018-11-04T10:28:13.301Z,13.10
2018-11-04T10:30:42.212Z,15.00
2018-11-04T10:33:11.215Z,14.30
2018-11-04T10:35:40.848Z,16.05
2018-11-04T10:38:10.027Z,14.67
2018-11-04T10:40:39.465Z,13.27
2018-11-04T10:43:08.481Z,11.80
2018-11-04T10:45:37.402Z,13.03
2018-11-04T10:48:06.333Z,13.40
2018-11-04T10:50:35.226Z,11.70
2018-11-04T10:53:04.341Z,12.35
2018-11-04T10:55:33.296Z,11.10
2018-11-04T10:58:02.880Z,10.90
2018-11-04T11:00:37.806Z,12.40
2018-11-04T11:03:07.278Z,13.67
2018-11-04T11:05:36.240Z,11.40
2018-11-04T11:08:05.744Z,12.80
2018-11-04T11:10:34.786Z,12.23
2018-11-04T11:13:04.031Z,11.60
2018-11-04T11:15:32.941Z,11.33
2018-11-04T11:18:01.608Z,11.17
2018-11-04T11:20:30.647Z,10.60
2018-11-04T11:22:59.679Z,10.37
2018-11-04T11:25:29.145Z,11.83
2018-11-04T11:27:58.388Z,9.93
2018-11-04T11:30:27.602Z,10.50
2018-11-04T11:32:56.890Z,11.00
2018-11-04T11:35:26.286Z,10.40
2018-11-04T11:37:55.403Z,10.83
2018-11-04T11:40:24.456Z,10.60
2018-11-04T11:42:53.712Z,10.73
2018-11-04T11:45:22.915Z,11.60
2018-11-04T11:47:52.275Z,11.23
2018-11-04T11:50:21.446Z,10.87
2018-11-04T11:52:50.610Z,11.47
2018-11-04T11:55:20.153Z,11.08
2018-11-04T11:57:49.091Z,10.50
2018-11-04T12:00:17.986Z,10.90
2018-11-04T12:02:46.801Z,10.40
2018-11-04T12:05:15.790Z,12.00
2018-11-04T12:07:44.863Z,10.00
2018-11-04T12:10:14.368Z,10.70
2018-11-04T12:12:43.396Z,10.63
2018-11-04T12:15:13.826Z,11.60
2018-11-04T12:17:44.128Z,12.13
2018-11-04T12:20:13.651Z,10.80
2018-11-04T12:22:43.206Z,12.03
2018-11-04T12:25:12.947Z,11.00
2018-11-04T12:27:41.922Z,10.90
2018-11-04T12:30:14.390Z,11.37
2018-11-04T12:32:44.199Z,11.80
2018-11-04T12:35:14.190Z,11.70
2018-11-04T12:37:44.143Z,11.50
2018-11-04T12:40:14.212Z,11.77
2018-11-04T12:42:43.846Z,12.47
2018-11-04T12:45:14.151Z,12.30
2018-11-04T12:47:43.626Z,12.37
2018-11-04T12:50:13.341Z,13.47
2018-11-04T12:52:42.826Z,13.50
2018-11-04T12:55:11.943Z,13.50
2018-11-04T12:57:41.022Z,14.30
2018-11-04T13:00:13.348Z,14.80
2018-11-04T13:02:42.607Z,14.07
2018-11-04T13:05:11.724Z,15.27
2018-11-04T13:07:40.931Z,14.57
2018-11-04T13:10:11.623Z,14.07
2018-11-04T13:12:40.333Z,14.63
2018-11-04T13:15:12.733Z,16.00
2018-11-04T13:17:42.927Z,16.00
2018-11-04T13:20:12.138Z,14.85
2018-11-04T13:22:41.459Z,15.97
2018-11-04T13:25:10.886Z,15.40
2018-11-04T13:27:39.631Z,15.13
2018-11-04T13:30:11.777Z,15.43
2018-11-04T13:32:40.989Z,14.87
2018-11-04T13:35:10.211Z,14.70
2018-11-04T13:37:39.471Z,15.85
2018-11-04T13:40:10.181Z,14.30
2018-11-04T13:42:38.908Z,15.63
2018-11-04T13:45:09.074Z,15.35
2018-11-04T13:47:38.541Z,15.83
2018-11-04T13:50:09.728Z,16.33
2018-11-04T13:52:38.681Z,14.17
2018-11-04T13:55:08.167Z,15.03
2018-11-04T13:57:37.433Z,15.07
2018-11-04T14:00:08.432Z,15.17
2018-11-04T14:02:37.382Z,14.70
2018-11-04T14:05:07.056Z,16.05
2018-11-04T14:07:36.053Z,15.13
2018-11-04T14:10:05.306Z,15.50
2018-11-04T14:12:34.600Z,15.70
2018-11-04T14:15:03.587Z,14.07
2018-11-04T14:17:32.483Z,14.73
2018-11-04T14:20:02.250Z,14.55
2018-11-04T14:22:31.533Z,14.70
2018-11-04T14:25:00.637Z,16.23
2018-11-04T14:27:29.821Z,15.47
2018-11-04T14:29:58.623Z,16.20
2018-11-04T14:32:27.247Z,16.93
2018-11-04T14:34:56.562Z,15.37
2018-11-04T14:37:25.852Z,15.83
2018-11-04T14:39:55.073Z,14.70
2018-11-04T14:42:24.360Z,15.08
2018-11-04T14:44:53.397Z,14.30
2018-11-04T14:47:22.744Z,15.88
2018-11-04T14:49:51.603Z,14.87
2018-11-04T14:52:20.923Z,14.90
2018-11-04T14:54:50.139Z,15.03
2018-11-04T14:57:19.572Z,14.33
2018-11-04T14:59:48.796Z,14.83
2018-11-04T15:02:17.889Z,13.60
2018-11-04T15:04:47.235Z,16.20
2018-11-04T15:07:16.417Z,14.93
2018-11-04T15:09:45.591Z,14.20
2018-11-04T15:12:14.546Z,14.13
2018-11-04T15:14:43.940Z,13.23
2018-11-04T15:17:14.217Z,15.40
2018-11-04T15:19:43.323Z,15.88
2018-11-04T15:22:12.270Z,15.50
2018-11-04T15:24:42.037Z,14.30
2018-11-04T15:27:11.131Z,14.37
2018-11-04T15:29:40.220Z,15.10
2018-11-04T15:32:09.113Z,15.37
2018-11-04T15:34:38.365Z,16.50
2018-11-04T15:37:06.993Z,15.40
2018-11-04T15:39:36.184Z,13.63
2018-11-04T15:42:05.400Z,13.45
2018-11-04T15:44:34.543Z,13.67
2018-11-04T15:47:04.047Z,13.23
2018-11-04T15:49:32.962Z,15.37
2018-11-04T15:52:02.338Z,16.27
2018-11-04T15:54:31.641Z,12.73
2018-11-04T15:57:05.704Z,14.33
2018-11-04T15:59:34.828Z,17.70
2018-11-04T16:02:04.112Z,13.93
2018-11-04T16:04:44.542Z,13.40
2018-11-04T16:07:02.588Z,12.60
2018-11-04T16:09:31.695Z,13.20
2018-11-04T16:12:00.843Z,11.77
2018-11-04T16:14:30.222Z,12.50
2018-11-04T16:16:59.358Z,12.37
2018-11-04T16:19:28.923Z,11.97
2018-11-04T16:21:57.992Z,12.17
2018-11-04T16:24:28.302Z,12.33
2018-11-04T16:26:57.592Z,13.17
2018-11-04T16:29:27.522Z,14.40
2018-11-04T16:31:56.388Z,17.93
2018-11-04T16:34:26.015Z,16.67
2018-11-04T16:36:55.248Z,20.30
2018-11-04T16:39:24.442Z,17.47
2018-11-04T16:41:53.627Z,14.00
2018-11-04T16:44:23.020Z,10.63
2018-11-04T16:46:52.142Z,13.30
2018-11-04T16:49:21.507Z,12.27
2018-11-04T16:51:51.069Z,13.00
2018-11-04T16:54:19.811Z,12.47
2018-11-04T16:56:49.071Z,13.20
2018-11-04T16:59:18.252Z,11.87
2018-11-04T17:01:48.388Z,11.57
2018-11-04T17:04:17.684Z,11.80
2018-11-04T17:06:46.957Z,12.03
2018-11-04T17:09:16.100Z,13.08
2018-11-04T17:11:45.129Z,11.27
2018-11-04T17:14:14.754Z,11.78
2018-11-04T17:16:43.748Z,11.90
2018-11-04T17:19:12.887Z,11.87
2018-11-04T17:21:42.125Z,12.03
2018-11-04T17:24:11.534Z,11.87
2018-11-04T17:26:40.423Z,13.30
2018-11-04T17:29:10.042Z,13.10
2018-11-04T17:31:39.171Z,11.90
2018-11-04T17:34:08.365Z,12.90
2018-11-04T17:36:37.709Z,13.17
2018-11-04T17:39:09.227Z,16.13
2018-11-04T17:41:38.874Z,14.27
2018-11-04T17:44:09.115Z,13.80
2018-11-04T17:46:39.210Z,14.30
2018-11-04T17:49:09.454Z,12.00
2018-11-04T17:51:38.912Z,11.88
2018-11-04T17:54:08.512Z,11.50
2018-11-04T17:56:37.362Z,12.60
2018-11-04T17:59:06.805Z,12.30
2018-11-04T18:01:35.657Z,15.17
2018-11-04T18:04:04.513Z,11.40
2018-11-04T18:06:33.943Z,12.40
2018-11-04T18:09:02.937Z,12.50
2018-11-04T18:11:31.875Z,11.57
2018-11-04T18:14:00.885Z,10.75
2018-11-04T18:16:29.957Z,11.20
2018-11-04T18:18:59.163Z,12.00
2018-11-04T18:21:28.297Z,11.53
2018-11-04T18:23:57.163Z,11.70
2018-11-04T18:26:26.853Z,12.70
2018-11-04T18:28:56.099Z,14.00
2018-11-04T18:31:25.399Z,12.43
2018-11-04T18:33:54.570Z,12.68
2018-11-04T18:36:24.438Z,12.13
2018-11-04T18:38:53.923Z,10.73
2018-11-04T18:41:23.246Z,15.10
2018-11-04T18:43:52.223Z,16.32
2018-11-04T18:46:21.656Z,12.70
2018-11-04T18:48:50.801Z,13.43
2018-11-04T18:51:19.918Z,13.40
2018-11-04T18:53:49.236Z,12.87
2018-11-04T18:56:18.362Z,13.47
2018-11-04T18:58:48.430Z,12.97
2018-11-04T19:01:17.899Z,12.93
2018-11-04T19:03:47.202Z,13.10
2018-11-04T19:06:17.359Z,14.17
2018-11-04T19:08:46.477Z,12.87
2018-11-04T19:11:16.863Z,14.63
2018-11-04T19:13:45.688Z,12.70
2018-11-04T19:16:14.939Z,14.13
2018-11-04T19:18:44.493Z,13.73
2018-11-04T19:21:14.140Z,12.63
2018-11-04T19:23:43.782Z,15.18
2018-11-04T19:26:14.050Z,14.57
2018-11-04T19:28:43.258Z,16.10
2018-11-04T19:31:12.656Z,16.00
2018-11-04T19:33:41.880Z,15.88
2018-11-04T19:36:10.855Z,16.40
2018-11-04T19:38:40.578Z,15.70
2018-11-04T19:41:10.393Z,16.80
2018-11-04T19:43:40.977Z,20.57
2018-11-04T19:46:10.954Z,15.93
2018-11-04T19:48:40.025Z,16.47
2018-11-04T19:51:10.060Z,24.20
2018-11-04T19:53:39.278Z,17.60
2018-11-04T19:56:09.414Z,16.13
2018-11-04T19:58:38.699Z,16.00
2018-11-04T20:01:09.049Z,12.20
2018-11-04T20:03:38.062Z,13.85
2018-11-04T20:06:07.747Z,14.70
2018-11-04T20:08:36.666Z,13.75
2018-11-04T20:11:05.945Z,14.03
2018-11-04T20:13:40.162Z,14.63
2018-11-04T20:16:09.302Z,13.68
2018-11-04T20:18:43.534Z,12.80
2018-11-04T20:21:12.590Z,12.53
2018-11-04T20:23:41.722Z,11.93
2018-11-04T20:26:13.018Z,13.50
2018-11-04T20:28:42.567Z,13.53
2018-11-04T20:31:16.519Z,16.77
2018-11-04T20:33:47.984Z,13.50
2018-11-04T20:36:20.185Z,14.67
2018-11-04T20:38:54.434Z,13.85
2018-11-04T20:41:29.293Z,15.30
2018-11-04T20:43:59.079Z,13.97
2018-11-04T20:46:28.224Z,15.10
2018-11-04T20:49:02.508Z,14.80
2018-11-04T20:51:31.478Z,12.97
2018-11-04T20:54:00.781Z,13.60
2018-11-04T20:56:35.064Z,12.27
2018-11-04T20:59:04.830Z,14.20
2018-11-04T21:01:34.274Z,13.77
2018-11-04T21:04:03.561Z,18.43
2018-11-04T21:06:33.367Z,15.75
2018-11-04T21:09:02.648Z,16.10
2018-11-04T21:11:32.040Z,17.30
2018-11-04T21:14:01.295Z,23.10
2018-11-04T21:16:30.605Z,23.03
2018-11-04T21:18:59.746Z,16.30
2018-11-04T21:21:28.581Z,15.07
2018-11-04T21:23:58.263Z,14.50
2018-11-04T21:26:27.298Z,13.93
2018-11-04T21:28:56.831Z,14.70
2018-11-04T21:31:25.766Z,14.30
2018-11-04T21:33:54.950Z,14.70
2018-11-04T21:36:26.397Z,15.30
2018-11-04T21:38:55.753Z,16.23
2018-11-04T21:41:25.623Z,15.90
2018-11-04T21:43:55.013Z,15.78
2018-11-04T21:46:24.049Z,17.30
2018-11-04T21:48:53.523Z,16.20
2018-11-04T21:51:22.398Z,13.70
2018-11-04T21:53:51.575Z,15.80
2018-11-04T21:56:20.731Z,14.67
2018-11-04T21:58:49.352Z,15.37
2018-11-04T22:01:18.562Z,16.52
2018-11-04T22:03:47.838Z,17.20
2018-11-04T22:06:16.985Z,15.63
2018-11-04T22:08:46.070Z,15.20
2018-11-04T22:11:15.804Z,16.37
2018-11-04T22:13:44.582Z,15.20
2018-11-04T22:16:14.895Z,15.17
2018-11-04T22:18:43.570Z,14.50
2018-11-04T22:21:12.518Z,15.38
2018-11-04T22:23:42.177Z,14.77
2018-11-04T22:26:11.169Z,15.95
2018-11-04T22:28:41.166Z,13.90
2018-11-04T22:31:10.154Z,15.50
2018-11-04T22:33:40.222Z,13.77
2018-11-04T22:36:09.549Z,13.03
2018-11-04T22:38:38.276Z,14.77
2018-11-04T22:41:07.198Z,14.50
2018-11-04T22:43:36.380Z,15.80
2018-11-04T22:46:05.700Z,14.27
2018-11-04T22:48:34.624Z,14.00
2018-11-04T22:51:03.878Z,14.30
2018-11-04T22:53:32.940Z,14.73
2018-11-04T22:56:02.377Z,18.00
2018-11-04T22:58:31.406Z,17.82
2018-11-04T23:01:01.220Z,29.95
2018-11-04T23:03:29.913Z,15.68
2018-11-04T23:06:02.995Z,15.27
2018-11-04T23:08:32.861Z,17.13
2018-11-04T23:11:01.599Z,17.10
2018-11-04T23:13:30.645Z,20.50
2018-11-04T23:15:59.543Z,16.53
2018-11-04T23:18:28.471Z,17.13
2018-11-04T23:20:57.390Z,18.70
2018-11-04T23:23:26.483Z,17.42
2018-11-04T23:25:55.563Z,17.30
2018-11-04T23:28:24.360Z,17.57
2018-11-04T23:30:53.299Z,16.53
2018-11-04T23:33:22.570Z,12.97
2018-11-04T23:35:51.383Z,14.63
2018-11-04T23:38:20.169Z,14.43
2018-11-04T23:40:49.415Z,15.93
2018-11-04T23:43:18.390Z,16.60
2018-11-04T23:45:48.835Z,18.87
2018-11-04T23:48:17.613Z,19.60
2018-11-04T23:50:46.248Z,19.67
2018-11-04T23:53:15.515Z,15.90
2018-11-04T23:55:44.628Z,18.17
2018-11-04T23:58:13.820Z,17.20
